sensor_id;sensor_type;location;lat;lon;timestamp;pressure;altitude;pressure_sealevel;temperature;humidity
72086;BME280;64750;52.134;5.424;2023-03-20T00:01:57;102121.75;;;9.21;81.33
72086;BME280;64750;52.134;5.424;2023-03-20T00:04:24;102123.50;;;9.20;80.91
72086;BME280;64750;52.134;5.424;2023-03-20T00:06:51;102123.44;;;9.22;81.29
72086;BME280;64750;52.134;5.424;2023-03-20T00:09:18;102125.28;;;9.19;81.17
72086;BME280;64750;52.134;5.424;2023-03-20T00:11:54;102126.19;;;9.18;81.27
72086;BME280;64750;52.134;5.424;2023-03-20T00:14:21;102125.38;;;9.16;81.27
72086;BME280;64750;52.134;5.424;2023-03-20T00:16:50;102131.44;;;9.18;81.30
72086;BME280;64750;52.134;5.424;2023-03-20T00:19:25;102140.31;;;9.14;81.06
72086;BME280;64750;52.134;5.424;2023-03-20T00:21:53;102144.59;;;9.17;81.25
72086;BME280;64750;52.134;5.424;2023-03-20T00:24:21;102130.66;;;9.15;81.20
72086;BME280;64750;52.134;5.424;2023-03-20T00:26:49;102122.09;;;9.10;81.03
72086;BME280;64750;52.134;5.424;2023-03-20T00:29:27;102124.72;;;9.10;81.12
72086;BME280;64750;52.134;5.424;2023-03-20T00:31:56;102122.09;;;9.10;81.03
72086;BME280;64750;52.134;5.424;2023-03-20T00:34:25;102122.03;;;9.11;81.17
72086;BME280;64750;52.134;5.424;2023-03-20T00:36:54;102120.38;;;9.09;81.14
72086;BME280;64750;52.134;5.424;2023-03-20T00:39:21;102103.69;;;9.11;81.26
72086;BME280;64750;52.134;5.424;2023-03-20T00:41:51;102103.59;;;9.14;80.93
72086;BME280;64750;52.134;5.424;2023-03-20T00:44:20;102104.38;;;9.16;81.04
72086;BME280;64750;52.134;5.424;2023-03-20T00:46:50;102115.88;;;9.12;81.00
72086;BME280;64750;52.134;5.424;2023-03-20T00:49:19;102143.19;;;9.07;81.04
72086;BME280;64750;52.134;5.424;2023-03-20T00:51:47;102133.66;;;9.04;81.23
72086;BME280;64750;52.134;5.424;2023-03-20T00:54:15;102139.69;;;9.06;81.29
72086;BME280;64750;52.134;5.424;2023-03-20T00:57:04;102158.28;;;9.00;81.14
72086;BME280;64750;52.134;5.424;2023-03-20T00:59:41;102147.69;;;9.03;81.31
72086;BME280;64750;52.134;5.424;2023-03-20T01:02:12;102177.41;;;9.02;81.05
72086;BME280;64750;52.134;5.424;2023-03-20T01:04:40;102184.50;;;9.00;81.39
72086;BME280;64750;52.134;5.424;2023-03-20T01:07:11;102186.31;;;8.98;81.29
72086;BME280;64750;52.134;5.424;2023-03-20T01:09:38;102179.25;;;9.00;81.32
72086;BME280;64750;52.134;5.424;2023-03-20T01:12:05;102181.78;;;9.03;81.36
72086;BME280;64750;52.134;5.424;2023-03-20T01:14:33;102173.06;;;9.02;81.14
72086;BME280;64750;52.134;5.424;2023-03-20T01:16:59;102152.81;;;9.06;80.94
72086;BME280;64750;52.134;5.424;2023-03-20T01:19:26;102148.25;;;9.11;80.22
72086;BME280;64750;52.134;5.424;2023-03-20T01:21:52;102154.44;;;9.10;80.13
72086;BME280;64750;52.134;5.424;2023-03-20T01:24:19;102171.84;;;9.13;80.01
72086;BME280;64750;52.134;5.424;2023-03-20T01:26:45;102174.59;;;9.08;79.95
72086;BME280;64750;52.134;5.424;2023-03-20T01:29:24;102173.78;;;9.06;79.82
72086;BME280;64750;52.134;5.424;2023-03-20T01:31:51;102161.50;;;9.08;79.73
72086;BME280;64750;52.134;5.424;2023-03-20T01:34:18;102157.06;;;9.10;79.54
72086;BME280;64750;52.134;5.424;2023-03-20T01:36:54;102166.75;;;9.08;79.37
72086;BME280;64750;52.134;5.424;2023-03-20T01:39:29;102168.53;;;9.06;79.42
72086;BME280;64750;52.134;5.424;2023-03-20T01:41:58;102164.94;;;9.10;79.33
72086;BME280;64750;52.134;5.424;2023-03-20T01:44:28;102154.34;;;9.13;79.18
72086;BME280;64750;52.134;5.424;2023-03-20T01:46:55;102150.88;;;9.11;79.12
72086;BME280;64750;52.134;5.424;2023-03-20T01:51:48;102160.69;;;9.06;78.55
72086;BME280;64750;52.134;5.424;2023-03-20T01:54:25;102156.25;;;9.08;78.57
72086;BME280;64750;52.134;5.424;2023-03-20T01:56:57;102150.88;;;9.11;78.39
72086;BME280;64750;52.134;5.424;2023-03-20T01:59:29;102150.88;;;9.11;78.22
72086;BME280;64750;52.134;5.424;2023-03-20T02:01:57;102135.97;;;9.13;78.19
72086;BME280;64750;52.134;5.424;2023-03-20T02:04:29;102131.63;;;9.12;78.28
72086;BME280;64750;52.134;5.424;2023-03-20T02:06:56;102139.66;;;9.08;77.82
72086;BME280;64750;52.134;5.424;2023-03-20T02:09:22;102156.44;;;9.02;77.77
72086;BME280;64750;52.134;5.424;2023-03-20T02:11:50;102153.13;;;8.97;77.74
72086;BME280;64750;52.134;5.424;2023-03-20T02:14:17;102133.09;;;8.94;77.82
72086;BME280;64750;52.134;5.424;2023-03-20T02:16:44;102142.56;;;8.98;77.83
72086;BME280;64750;52.134;5.424;2023-03-20T02:19:18;102139.09;;;8.98;77.88
72086;BME280;64750;52.134;5.424;2023-03-20T02:21:57;102149.00;;;8.90;78.08
72086;BME280;64750;52.134;5.424;2023-03-20T02:24:57;102149.13;;;8.85;78.24
72086;BME280;64750;52.134;5.424;2023-03-20T02:27:36;102134.16;;;8.89;78.29
72086;BME280;64750;52.134;5.424;2023-03-20T02:33:20;102120.19;;;8.88;78.36
72086;BME280;64750;52.134;5.424;2023-03-20T02:42:02;102135.44;;;8.75;78.28
72086;BME280;64750;52.134;5.424;2023-03-20T02:44:40;102133.72;;;8.74;78.16
72086;BME280;64750;52.134;5.424;2023-03-20T02:47:13;102139.91;;;8.72;78.15
72086;BME280;64750;52.134;5.424;2023-03-20T02:53:03;102140.84;;;8.70;78.51
72086;BME280;64750;52.134;5.424;2023-03-20T02:55:46;102130.38;;;8.69;78.42
72086;BME280;64750;52.134;5.424;2023-03-20T02:58:20;102111.25;;;8.67;78.41
72086;BME280;64750;52.134;5.424;2023-03-20T03:00:59;102111.00;;;8.75;78.31
72086;BME280;64750;52.134;5.424;2023-03-20T03:03:42;102091.69;;;8.77;78.43
72086;BME280;64750;52.134;5.424;2023-03-20T03:06:17;102083.63;;;8.83;78.23
72086;BME280;64750;52.134;5.424;2023-03-20T03:08:49;102067.78;;;8.86;77.61
72086;BME280;64750;52.134;5.424;2023-03-20T03:11:17;102066.91;;;8.88;77.69
72086;BME280;64750;52.134;5.424;2023-03-20T03:13:47;102066.84;;;8.89;77.40
72086;BME280;64750;52.134;5.424;2023-03-20T03:16:21;102068.63;;;8.89;77.15
72086;BME280;64750;52.134;5.424;2023-03-20T03:18:54;102069.41;;;8.91;77.23
72086;BME280;64750;52.134;5.424;2023-03-20T03:21:23;102066.00;;;8.89;77.21
72086;BME280;64750;52.134;5.424;2023-03-20T03:23:51;102077.50;;;8.84;76.90
72086;BME280;64750;52.134;5.424;2023-03-20T03:26:29;102077.63;;;8.80;77.23
72086;BME280;64750;52.134;5.424;2023-03-20T03:29:05;102091.00;;;8.72;76.88
72086;BME280;64750;52.134;5.424;2023-03-20T03:31:36;102080.50;;;8.72;77.33
72086;BME280;64750;52.134;5.424;2023-03-20T03:34:03;102069.91;;;8.75;77.13
72086;BME280;64750;52.134;5.424;2023-03-20T03:36:50;102079.63;;;8.72;77.32
72086;BME280;64750;52.134;5.424;2023-03-20T03:44:47;102064.22;;;8.62;77.03
72086;BME280;64750;52.134;5.424;2023-03-20T03:47:22;102066.88;;;8.61;77.01
72086;BME280;64750;52.134;5.424;2023-03-20T03:49:56;102058.22;;;8.59;76.94
72086;BME280;64750;52.134;5.424;2023-03-20T03:52:24;102067.84;;;8.58;76.74
72086;BME280;64750;52.134;5.424;2023-03-20T03:55:00;102060.13;;;8.53;77.34
72086;BME280;64750;52.134;5.424;2023-03-20T03:57:39;102058.31;;;8.56;77.34
72086;BME280;64750;52.134;5.424;2023-03-20T04:00:09;102060.03;;;8.57;77.40
72086;BME280;64750;52.134;5.424;2023-03-20T04:02:38;102058.50;;;8.49;77.02
72086;BME280;64750;52.134;5.424;2023-03-20T04:05:05;102049.88;;;8.46;76.84
72086;BME280;64750;52.134;5.424;2023-03-20T04:07:32;102043.69;;;8.48;76.95
72086;BME280;64750;52.134;5.424;2023-03-20T04:09:59;102036.75;;;8.47;77.07
72086;BME280;64750;52.134;5.424;2023-03-20T04:12:40;102045.47;;;8.48;76.98
72086;BME280;64750;52.134;5.424;2023-03-20T04:15:07;102037.66;;;8.46;77.05
72086;BME280;64750;52.134;5.424;2023-03-20T04:17:34;102049.88;;;8.46;76.77
72086;BME280;64750;52.134;5.424;2023-03-20T04:20:01;102042.91;;;8.46;77.33
72086;BME280;64750;52.134;5.424;2023-03-20T04:22:28;102043.81;;;8.44;77.25
72086;BME280;64750;52.134;5.424;2023-03-20T04:24:56;102039.63;;;8.38;77.28
72086;BME280;64750;52.134;5.424;2023-03-20T04:27:23;102040.38;;;8.42;76.81
72086;BME280;64750;52.134;5.424;2023-03-20T04:29:49;102036.81;;;8.44;76.77
72086;BME280;64750;52.134;5.424;2023-03-20T04:32:16;102037.72;;;8.43;76.97
72086;BME280;64750;52.134;5.424;2023-03-20T04:34:42;102032.56;;;8.40;77.31
72086;BME280;64750;52.134;5.424;2023-03-20T04:37:09;102035.25;;;8.38;76.90
72086;BME280;64750;52.134;5.424;2023-03-20T04:39:35;102049.25;;;8.37;77.07
72086;BME280;64750;52.134;5.424;2023-03-20T04:42:05;102047.59;;;8.35;76.69
72086;BME280;64750;52.134;5.424;2023-03-20T04:44:31;102039.91;;;8.29;77.09
72086;BME280;64750;52.134;5.424;2023-03-20T04:46:58;102048.66;;;8.28;77.30
72086;BME280;64750;52.134;5.424;2023-03-20T04:49:24;102043.34;;;8.31;77.19
72086;BME280;64750;52.134;5.424;2023-03-20T04:51:51;102046.75;;;8.33;77.34
72086;BME280;64750;52.134;5.424;2023-03-20T04:54:18;102048.66;;;8.28;76.89
72086;BME280;64750;52.134;5.424;2023-03-20T04:56:45;102039.97;;;8.27;77.14
72086;BME280;64750;52.134;5.424;2023-03-20T04:59:11;102044.50;;;8.22;76.92
72086;BME280;64750;52.134;5.424;2023-03-20T05:01:38;102040.91;;;8.25;77.01
72086;BME280;64750;52.134;5.424;2023-03-20T05:04:05;102033.00;;;8.26;77.31
72086;BME280;64750;52.134;5.424;2023-03-20T05:06:31;102040.88;;;8.26;77.33
72086;BME280;64750;52.134;5.424;2023-03-20T05:08:58;102036.47;;;8.27;76.95
72086;BME280;64750;52.134;5.424;2023-03-20T05:11:26;102032.94;;;8.28;77.48
72086;BME280;64750;52.134;5.424;2023-03-20T05:13:53;102032.19;;;8.24;77.35
72086;BME280;64750;52.134;5.424;2023-03-20T05:16:20;102024.31;;;8.26;77.48
72086;BME280;64750;52.134;5.424;2023-03-20T05:18:46;102025.16;;;8.26;77.30
72086;BME280;64750;52.134;5.424;2023-03-20T05:21:12;102026.03;;;8.25;77.27
72086;BME280;64750;52.134;5.424;2023-03-20T05:23:39;102031.34;;;8.24;77.43
72086;BME280;64750;52.134;5.424;2023-03-20T05:26:05;102030.53;;;8.21;77.25
72086;BME280;64750;52.134;5.424;2023-03-20T05:28:32;102036.94;;;8.11;77.27
72086;BME280;64750;52.134;5.424;2023-03-20T05:30:59;102037.66;;;8.16;77.48
72086;BME280;64750;52.134;5.424;2023-03-20T05:33:25;102039.44;;;8.16;77.40
72086;BME280;64750;52.134;5.424;2023-03-20T05:35:52;102030.53;;;8.21;77.48
72086;BME280;64750;52.134;5.424;2023-03-20T05:38:18;102026.16;;;8.22;77.70
72086;BME280;64750;52.134;5.424;2023-03-20T05:40:48;102027.00;;;8.23;77.37
72086;BME280;64750;52.134;5.424;2023-03-20T05:43:15;102031.44;;;8.20;77.16
72086;BME280;64750;52.134;5.424;2023-03-20T05:45:42;102037.53;;;8.21;77.22
72086;BME280;64750;52.134;5.424;2023-03-20T05:48:08;102048.13;;;8.18;77.54
72086;BME280;64750;52.134;5.424;2023-03-20T05:50:35;102038.59;;;8.15;77.48
72086;BME280;64750;52.134;5.424;2023-03-20T05:53:01;102051.75;;;8.12;77.56
72086;BME280;64750;52.134;5.424;2023-03-20T05:55:28;102052.63;;;8.13;77.55
72086;BME280;64750;52.134;5.424;2023-03-20T05:57:54;102071.16;;;8.07;77.84
72086;BME280;64750;52.134;5.424;2023-03-20T06:00:21;102060.69;;;8.07;77.53
72086;BME280;64750;52.134;5.424;2023-03-20T06:02:48;102064.97;;;8.09;77.50
72086;BME280;64750;52.134;5.424;2023-03-20T06:05:14;102063.13;;;8.13;77.87
72086;BME280;64750;52.134;5.424;2023-03-20T06:07:41;102059.63;;;8.12;77.40
72086;BME280;64750;52.134;5.424;2023-03-20T06:10:08;102055.19;;;8.14;77.65
72086;BME280;64750;52.134;5.424;2023-03-20T06:12:34;102045.63;;;8.13;77.70
72086;BME280;64750;52.134;5.424;2023-03-20T06:15:01;102047.28;;;8.16;77.35
72086;BME280;64750;52.134;5.424;2023-03-20T06:17:27;102054.19;;;8.18;77.35
72086;BME280;64750;52.134;5.424;2023-03-20T06:19:54;102049.97;;;8.14;77.43
72086;BME280;64750;52.134;5.424;2023-03-20T06:22:20;102053.44;;;8.15;77.45
72086;BME280;64750;52.134;5.424;2023-03-20T06:24:47;102054.38;;;8.12;77.71
72086;BME280;64750;52.134;5.424;2023-03-20T06:27:14;102051.81;;;8.11;77.83
72086;BME280;64750;52.134;5.424;2023-03-20T06:29:41;102056.22;;;8.09;77.78
72086;BME280;64750;52.134;5.424;2023-03-20T06:32:07;102053.94;;;7.98;77.51
72086;BME280;64750;52.134;5.424;2023-03-20T06:34:34;102070.66;;;7.94;77.71
72086;BME280;64750;52.134;5.424;2023-03-20T06:37:01;102073.09;;;8.00;77.81
72086;BME280;64750;52.134;5.424;2023-03-20T06:39:27;102076.69;;;7.96;78.24
72086;BME280;64750;52.134;5.424;2023-03-20T06:41:54;102082.63;;;8.01;78.43
72086;BME280;64750;52.134;5.424;2023-03-20T06:44:20;102077.38;;;8.02;78.16
72086;BME280;64750;52.134;5.424;2023-03-20T06:46:46;102074.72;;;8.04;77.95
72086;BME280;64750;52.134;5.424;2023-03-20T06:49:13;102078.41;;;7.97;77.89
72086;BME280;64750;52.134;5.424;2023-03-20T06:51:40;102085.53;;;7.92;78.24
72086;BME280;64750;52.134;5.424;2023-03-20T06:54:06;102089.22;;;7.84;78.42
72086;BME280;64750;52.134;5.424;2023-03-20T06:56:32;102090.88;;;7.87;78.64
72086;BME280;64750;52.134;5.424;2023-03-20T06:58:59;102083.78;;;7.92;78.72
72086;BME280;64750;52.134;5.424;2023-03-20T07:01:26;102083.59;;;7.98;78.62
72086;BME280;64750;52.134;5.424;2023-03-20T07:03:52;102079.31;;;7.96;78.28
72086;BME280;64750;52.134;5.424;2023-03-20T07:06:19;102083.75;;;7.94;78.28
72086;BME280;64750;52.134;5.424;2023-03-20T07:08:45;102082.84;;;7.95;78.76
72086;BME280;64750;52.134;5.424;2023-03-20T07:11:12;102084.38;;;8.02;78.72
72086;BME280;64750;52.134;5.424;2023-03-20T07:13:39;102077.59;;;7.95;78.68
72086;BME280;64750;52.134;5.424;2023-03-20T07:16:07;102091.59;;;7.94;78.79
72086;BME280;64750;52.134;5.424;2023-03-20T07:18:34;102082.91;;;7.92;78.65
72086;BME280;64750;52.134;5.424;2023-03-20T07:21:02;102080.34;;;7.90;78.61
72086;BME280;64750;52.134;5.424;2023-03-20T07:23:31;102072.44;;;7.92;78.66
72086;BME280;64750;52.134;5.424;2023-03-20T07:25:59;102093.50;;;7.88;78.86
72086;BME280;64750;52.134;5.424;2023-03-20T07:28:26;102089.09;;;7.89;78.83
72086;BME280;64750;52.134;5.424;2023-03-20T07:30:52;102085.53;;;7.92;78.69
72086;BME280;64750;52.134;5.424;2023-03-20T07:33:18;102094.28;;;7.91;79.08
72086;BME280;64750;52.134;5.424;2023-03-20T07:35:46;102097.84;;;7.88;79.03
72086;BME280;64750;52.134;5.424;2023-03-20T07:38:12;102096.00;;;7.92;79.33
72086;BME280;64750;52.134;5.424;2023-03-20T07:40:39;102092.56;;;7.89;79.12
72086;BME280;64750;52.134;5.424;2023-03-20T07:43:05;102100.41;;;7.89;79.15
72086;BME280;64750;52.134;5.424;2023-03-20T07:45:32;102097.22;;;7.80;78.76
72086;BME280;64750;52.134;5.424;2023-03-20T07:47:58;102092.00;;;7.80;78.80
72086;BME280;64750;52.134;5.424;2023-03-20T07:50:24;102090.16;;;7.82;79.36
72086;BME280;64750;52.134;5.424;2023-03-20T07:52:51;102099.69;;;7.84;78.89
72086;BME280;64750;52.134;5.424;2023-03-20T07:55:17;102094.44;;;7.84;78.99
72086;BME280;64750;52.134;5.424;2023-03-20T07:57:44;102089.88;;;7.93;79.15
72086;BME280;64750;52.134;5.424;2023-03-20T08:00:11;102089.88;;;7.93;79.21
72086;BME280;64750;52.134;5.424;2023-03-20T08:02:37;102093.38;;;7.92;78.79
72086;BME280;64750;52.134;5.424;2023-03-20T08:05:04;102086.44;;;7.91;78.97
72086;BME280;64750;52.134;5.424;2023-03-20T08:07:31;102091.78;;;7.87;78.80
72086;BME280;64750;52.134;5.424;2023-03-20T08:09:58;102091.84;;;7.84;79.06
72086;BME280;64750;52.134;5.424;2023-03-20T08:12:24;102088.16;;;7.92;78.90
72086;BME280;64750;52.134;5.424;2023-03-20T08:14:51;102080.19;;;7.96;78.64
72086;BME280;64750;52.134;5.424;2023-03-20T08:17:18;102092.38;;;7.96;78.98
72086;BME280;64750;52.134;5.424;2023-03-20T08:19:47;102089.88;;;7.93;78.86
72086;BME280;64750;52.134;5.424;2023-03-20T08:22:13;102090.72;;;7.93;78.76
72086;BME280;64750;52.134;5.424;2023-03-20T08:24:40;102082.84;;;7.95;78.40
72086;BME280;64750;52.134;5.424;2023-03-20T08:27:06;102088.81;;;8.00;78.56
72086;BME280;64750;52.134;5.424;2023-03-20T08:29:32;102090.59;;;7.98;78.32
72086;BME280;64750;52.134;5.424;2023-03-20T08:31:59;102085.25;;;8.02;78.13
72086;BME280;64750;52.134;5.424;2023-03-20T08:34:26;102082.63;;;8.01;77.62
72086;BME280;64750;52.134;5.424;2023-03-20T08:36:52;102089.69;;;7.99;77.62
72086;BME280;64750;52.134;5.424;2023-03-20T08:39:18;102082.63;;;8.01;78.02
72086;BME280;64750;52.134;5.424;2023-03-20T08:41:45;102080.00;;;8.02;77.93
72086;BME280;64750;52.134;5.424;2023-03-20T08:44:12;102087.69;;;8.07;77.59
72086;BME280;64750;52.134;5.424;2023-03-20T08:46:39;102080.66;;;8.09;77.38
72086;BME280;64750;52.134;5.424;2023-03-20T08:49:05;102082.47;;;8.07;77.08
72086;BME280;64750;52.134;5.424;2023-03-20T08:51:32;102082.41;;;8.10;77.24
72086;BME280;64750;52.134;5.424;2023-03-20T08:53:59;102084.00;;;8.14;77.45
72086;BME280;64750;52.134;5.424;2023-03-20T08:56:25;102082.19;;;8.16;77.34
72086;BME280;64750;52.134;5.424;2023-03-20T08:58:52;102089.09;;;8.19;77.23
72086;BME280;64750;52.134;5.424;2023-03-20T09:01:21;102076.94;;;8.16;76.78
72086;BME280;64750;52.134;5.424;2023-03-20T09:03:48;102078.78;;;8.14;77.29
72086;BME280;64750;52.134;5.424;2023-03-20T09:06:14;102079.78;;;8.10;77.02
72086;BME280;64750;52.134;5.424;2023-03-20T09:08:40;102083.19;;;8.12;78.08
72086;BME280;64750;52.134;5.424;2023-03-20T09:11:07;102090.19;;;8.12;78.36
72086;BME280;64750;52.134;5.424;2023-03-20T09:13:33;102087.53;;;8.13;78.69
72086;BME280;64750;52.134;5.424;2023-03-20T09:16:00;102094.50;;;8.14;78.79
72086;BME280;64750;52.134;5.424;2023-03-20T09:18:26;102092.88;;;8.10;79.56
72086;BME280;64750;52.134;5.424;2023-03-20T09:20:53;102100.78;;;8.07;79.60
72086;BME280;64750;52.134;5.424;2023-03-20T09:23:21;102093.09;;;8.02;79.47
72086;BME280;64750;52.134;5.424;2023-03-20T09:25:47;102096.50;;;8.04;80.07
72086;BME280;64750;52.134;5.424;2023-03-20T09:28:14;102094.66;;;8.08;80.23
72086;BME280;64750;52.134;5.424;2023-03-20T09:30:41;102094.56;;;8.11;80.37
72086;BME280;64750;52.134;5.424;2023-03-20T09:33:08;102097.19;;;8.11;80.51
72086;BME280;64750;52.134;5.424;2023-03-20T09:35:35;102105.00;;;8.13;81.11
72086;BME280;64750;52.134;5.424;2023-03-20T09:38:02;102094.50;;;8.14;80.72
72086;BME280;64750;52.134;5.424;2023-03-20T09:40:37;102100.44;;;8.19;81.33
72086;BME280;64750;52.134;5.424;2023-03-20T09:53:53;102087.25;;;8.23;81.50
72086;BME280;64750;52.134;5.424;2023-03-20T09:56:26;102088.13;;;8.21;81.50
72086;BME280;64750;52.134;5.424;2023-03-20T09:59:01;102076.59;;;8.29;81.52
72086;BME280;64750;52.134;5.424;2023-03-20T10:01:52;102078.31;;;8.30;81.65
72086;BME280;64750;52.134;5.424;2023-03-20T10:04:19;102078.19;;;8.33;81.88
72086;BME280;64750;52.134;5.424;2023-03-20T10:06:46;102083.34;;;8.36;82.22
72086;BME280;64750;52.134;5.424;2023-03-20T10:20:25;102073.72;;;8.36;82.19
72086;BME280;64750;52.134;5.424;2023-03-20T10:23:19;102073.72;;;8.36;82.23
72086;BME280;64750;52.134;5.424;2023-03-20T10:25:51;102074.69;;;8.34;81.76
72086;BME280;64750;52.134;5.424;2023-03-20T10:28:23;102076.28;;;8.38;81.96
72086;BME280;64750;52.134;5.424;2023-03-20T10:33:50;102071.88;;;8.40;81.80
72086;BME280;64750;52.134;5.424;2023-03-20T10:36:35;102073.78;;;8.35;81.70
72086;BME280;64750;52.134;5.424;2023-03-20T10:39:33;102074.59;;;8.37;82.25
72086;BME280;64750;52.134;5.424;2023-03-20T10:42:12;102070.22;;;8.37;82.07
72086;BME280;64750;52.134;5.424;2023-03-20T10:44:45;102066.59;;;8.42;82.38
72086;BME280;64750;52.134;5.424;2023-03-20T10:47:17;102067.47;;;8.42;82.46
72086;BME280;64750;52.134;5.424;2023-03-20T10:50:00;102059.63;;;8.41;82.23
72086;BME280;64750;52.134;5.424;2023-03-20T10:52:31;102067.47;;;8.42;82.24
72086;BME280;64750;52.134;5.424;2023-03-20T10:55:19;102061.28;;;8.43;82.57
72086;BME280;64750;52.134;5.424;2023-03-20T10:57:55;102057.75;;;8.46;82.70
72086;BME280;64750;52.134;5.424;2023-03-20T11:00:24;102057.56;;;8.52;82.82
72086;BME280;64750;52.134;5.424;2023-03-20T11:02:52;102046.13;;;8.54;83.28
72086;BME280;64750;52.134;5.424;2023-03-20T11:05:22;102058.31;;;8.56;83.10
72086;BME280;64750;52.134;5.424;2023-03-20T11:07:59;102060.19;;;8.52;83.19
72086;BME280;64750;52.134;5.424;2023-03-20T11:10:27;102054.16;;;8.50;83.07
72086;BME280;64750;52.134;5.424;2023-03-20T11:12:56;102051.53;;;8.48;83.30
72086;BME280;64750;52.134;5.424;2023-03-20T11:15:25;102052.50;;;8.46;83.23
72086;BME280;64750;52.134;5.424;2023-03-20T11:17:57;102052.63;;;8.41;83.06
72086;BME280;64750;52.134;5.424;2023-03-20T11:20:26;102050.09;;;8.38;83.26
72086;BME280;64750;52.134;5.424;2023-03-20T11:22:58;102053.53;;;8.40;83.73
72086;BME280;64750;52.134;5.424;2023-03-20T11:25:36;102054.50;;;8.37;83.81
72086;BME280;64750;52.134;5.424;2023-03-20T11:30:57;102049.31;;;8.36;84.19
72086;BME280;64750;52.134;5.424;2023-03-20T11:33:39;102038.66;;;8.41;84.01
72086;BME280;64750;52.134;5.424;2023-03-20T11:36:20;102030.72;;;8.44;84.29
72086;BME280;64750;52.134;5.424;2023-03-20T11:38:49;102027.28;;;8.42;83.45
72086;BME280;64750;52.134;5.424;2023-03-20T11:41:24;102021.13;;;8.43;84.01
72086;BME280;64750;52.134;5.424;2023-03-20T11:43:52;102023.69;;;8.46;84.03
72086;BME280;64750;52.134;5.424;2023-03-20T11:46:21;102008.84;;;8.46;84.14
72086;BME280;64750;52.134;5.424;2023-03-20T11:49:03;102019.16;;;8.51;84.08
72086;BME280;64750;52.134;5.424;2023-03-20T11:51:31;102009.44;;;8.54;84.28
72086;BME280;64750;52.134;5.424;2023-03-20T11:54:04;102018.94;;;8.57;84.31
72086;BME280;64750;52.134;5.424;2023-03-20T11:56:33;102011.97;;;8.58;84.17
72086;BME280;64750;52.134;5.424;2023-03-20T12:01:42;102015.31;;;8.61;84.54
72086;BME280;64750;52.134;5.424;2023-03-20T12:04:15;102015.22;;;8.64;84.31
72086;BME280;64750;52.134;5.424;2023-03-20T12:06:55;102012.66;;;8.63;84.04
72086;BME280;64750;52.134;5.424;2023-03-20T12:09:30;102007.31;;;8.66;84.58
72086;BME280;64750;52.134;5.424;2023-03-20T12:12:07;102010.63;;;8.71;84.86
72086;BME280;64750;52.134;5.424;2023-03-20T12:17:28;102008.84;;;8.73;85.61
72086;BME280;64750;52.134;5.424;2023-03-20T12:20:03;102006.16;;;8.75;85.32
72086;BME280;64750;52.134;5.424;2023-03-20T12:22:37;102003.69;;;8.70;85.39
72086;BME280;64750;52.134;5.424;2023-03-20T12:25:39;102014.91;;;8.74;85.28
72086;BME280;64750;52.134;5.424;2023-03-20T12:28:19;102006.09;;;8.76;85.44
72086;BME280;64750;52.134;5.424;2023-03-20T12:33:39;102007.81;;;8.77;85.19
72086;BME280;64750;52.134;5.424;2023-03-20T12:36:12;102008.84;;;8.73;85.46
72086;BME280;64750;52.134;5.424;2023-03-20T12:38:40;102006.28;;;8.70;85.69
72086;BME280;64750;52.134;5.424;2023-03-20T12:41:17;102002.88;;;8.68;86.06
72086;BME280;64750;52.134;5.424;2023-03-20T12:46:39;102000.16;;;8.71;86.13
72086;BME280;64750;52.134;5.424;2023-03-20T12:49:18;101996.50;;;8.75;86.56
72086;BME280;64750;52.134;5.424;2023-03-20T12:51:56;101995.66;;;8.75;86.88
72086;BME280;64750;52.134;5.424;2023-03-20T12:54:45;101993.00;;;8.76;87.26
72086;BME280;64750;52.134;5.424;2023-03-20T12:57:35;101991.28;;;8.75;87.30
72086;BME280;64750;52.134;5.424;2023-03-20T13:02:43;101990.56;;;8.70;87.31
72086;BME280;64750;52.134;5.424;2023-03-20T13:05:32;101984.53;;;8.68;87.76
72086;BME280;64750;52.134;5.424;2023-03-20T13:08:33;101975.66;;;8.72;87.81
72086;BME280;64750;52.134;5.424;2023-03-20T13:13:55;101977.47;;;8.70;87.81
72086;BME280;64750;52.134;5.424;2023-03-20T13:22:07;101974.22;;;8.63;87.56
72086;BME280;64750;52.134;5.424;2023-03-20T13:24:43;101968.16;;;8.61;87.76
72086;BME280;64750;52.134;5.424;2023-03-20T13:27:24;101971.59;;;8.63;87.97
72086;BME280;64750;52.134;5.424;2023-03-20T13:30:03;101970.75;;;8.63;88.46
72086;BME280;64750;52.134;5.424;2023-03-20T13:32:49;101971.47;;;8.66;88.72
72086;BME280;64750;52.134;5.424;2023-03-20T13:38:22;101964.41;;;8.68;88.60
72086;BME280;64750;52.134;5.424;2023-03-20T13:40:57;101965.25;;;8.69;88.79
72086;BME280;64750;52.134;5.424;2023-03-20T13:43:32;101964.47;;;8.67;88.63
72086;BME280;64750;52.134;5.424;2023-03-20T13:46:04;101959.25;;;8.67;88.49
72086;BME280;64750;52.134;5.424;2023-03-20T13:48:39;101959.25;;;8.67;88.82
72086;BME280;64750;52.134;5.424;2023-03-20T13:56:35;101953.09;;;8.68;89.07
72086;BME280;64750;52.134;5.424;2023-03-20T14:04:22;101951.16;;;8.73;89.08
72086;BME280;64750;52.134;5.424;2023-03-20T14:06:54;101946.97;;;8.67;88.86
72086;BME280;64750;52.134;5.424;2023-03-20T14:09:27;101947.72;;;8.71;89.35
72086;BME280;64750;52.134;5.424;2023-03-20T14:11:59;101955.66;;;8.69;89.09
72086;BME280;64750;52.134;5.424;2023-03-20T14:14:31;101946.88;;;8.70;89.16
72086;BME280;64750;52.134;5.424;2023-03-20T14:17:13;101953.78;;;8.73;89.23
72086;BME280;64750;52.134;5.424;2023-03-20T14:19:40;101943.31;;;8.73;89.13
72086;BME280;64750;52.134;5.424;2023-03-20T14:22:15;101951.91;;;8.77;89.28
72086;BME280;64750;52.134;5.424;2023-03-20T14:24:53;101956.28;;;8.76;89.22
72086;BME280;64750;52.134;5.424;2023-03-20T14:27:25;101958.97;;;8.75;89.16
72086;BME280;64750;52.134;5.424;2023-03-20T14:32:59;101946.00;;;8.70;88.84
72086;BME280;64750;52.134;5.424;2023-03-20T14:35:36;101944.41;;;8.66;88.99
72086;BME280;64750;52.134;5.424;2023-03-20T14:38:26;101949.50;;;8.70;88.89
72086;BME280;64750;52.134;5.424;2023-03-20T14:50:09;101944.41;;;8.66;88.97
72086;BME280;64750;52.134;5.424;2023-03-20T14:53:14;101941.69;;;8.69;88.61
72086;BME280;64750;52.134;5.424;2023-03-20T15:03:59;101946.00;;;8.70;89.30